createdAt,value
2023-02-04T00:01:12.325Z,68.30
2023-02-04T00:03:39.638Z,68.20
2023-02-04T00:06:07.320Z,68.00
2023-02-04T00:08:34.745Z,68.00
2023-02-04T00:11:02.173Z,67.80
2023-02-04T00:13:29.721Z,67.30
2023-02-04T00:15:57.206Z,67.50
2023-02-04T00:18:24.675Z,67.70
2023-02-04T00:20:52.263Z,67.80
2023-02-04T00:23:19.756Z,67.80
2023-02-04T00:25:47.398Z,67.70
2023-02-04T00:28:14.948Z,67.50
2023-02-04T00:30:42.501Z,67.60
2023-02-04T00:33:09.985Z,67.50
2023-02-04T00:35:37.512Z,67.20
2023-02-04T00:38:06.595Z,67.00
2023-02-04T00:40:34.003Z,67.10
2023-02-04T00:43:01.357Z,67.40
2023-02-04T00:45:29.326Z,67.60
2023-02-04T00:47:57.305Z,67.50
2023-02-04T00:50:24.762Z,67.30
2023-02-04T00:52:52.588Z,67.50
2023-02-04T00:55:20.225Z,67.50
2023-02-04T00:57:47.711Z,67.60
2023-02-04T01:00:18.126Z,67.20
2023-02-04T01:02:45.619Z,67.30
2023-02-04T01:05:14.166Z,67.40
2023-02-04T01:07:41.716Z,67.50
2023-02-04T01:10:09.715Z,68.40
2023-02-04T01:12:37.715Z,67.30
2023-02-04T01:15:06.321Z,67.20
2023-02-04T01:17:33.660Z,67.50
2023-02-04T01:20:00.916Z,68.30
2023-02-04T01:22:28.228Z,67.80
2023-02-04T01:24:56.132Z,67.70
2023-02-04T01:27:43.398Z,68.10
2023-02-04T01:30:13.667Z,68.30
2023-02-04T01:32:41.640Z,68.30
2023-02-04T01:35:09.158Z,69.30
2023-02-04T01:37:36.657Z,68.90
2023-02-04T01:40:04.962Z,68.80
2023-02-04T01:42:32.514Z,68.90
2023-02-04T01:44:59.842Z,69.10
2023-02-04T01:47:27.230Z,69.20
2023-02-04T01:49:55.425Z,69.10
2023-02-04T01:52:23.153Z,69.00
2023-02-04T01:54:52.981Z,68.90
2023-02-04T01:57:20.440Z,69.00
2023-02-04T01:59:49.254Z,68.90
2023-02-04T02:02:38.653Z,68.90
2023-02-04T02:05:07.740Z,68.90
2023-02-04T02:07:35.743Z,69.10
2023-02-04T02:10:05.870Z,69.10
2023-02-04T02:12:33.206Z,69.20
2023-02-04T02:15:01.233Z,69.20
2023-02-04T02:17:29.295Z,69.30
2023-02-04T02:19:56.785Z,69.50
2023-02-04T02:22:34.019Z,69.80
2023-02-04T02:25:09.350Z,70.10
2023-02-04T02:27:36.780Z,70.30
2023-02-04T02:30:05.123Z,70.60
2023-02-04T02:32:32.722Z,70.90
2023-02-04T02:35:00.173Z,71.10
2023-02-04T02:37:30.092Z,71.10
2023-02-04T02:39:57.708Z,71.10
2023-02-04T02:42:25.164Z,71.10
2023-02-04T02:44:53.793Z,71.30
2023-02-04T02:47:22.636Z,71.20
2023-02-04T02:49:52.722Z,71.30
2023-02-04T02:52:20.216Z,71.30
2023-02-04T02:54:47.833Z,71.40
2023-02-04T02:57:21.187Z,71.50
2023-02-04T02:59:49.166Z,72.40
2023-02-04T03:02:24.178Z,71.90
2023-02-04T03:04:56.301Z,72.10
2023-02-04T03:07:27.369Z,72.20
2023-02-04T03:09:54.811Z,72.30
2023-02-04T03:12:22.030Z,72.70
2023-02-04T03:14:49.323Z,73.00
2023-02-04T03:17:16.765Z,73.50
2023-02-04T03:19:44.198Z,73.90
2023-02-04T03:22:11.721Z,74.40
2023-02-04T03:24:39.129Z,74.90
2023-02-04T03:27:07.117Z,75.10
2023-02-04T03:29:40.622Z,75.20
2023-02-04T03:32:07.953Z,75.20
2023-02-04T03:34:35.223Z,75.30
2023-02-04T03:37:02.403Z,75.30
2023-02-04T03:39:29.585Z,75.30
2023-02-04T03:41:56.775Z,75.20
2023-02-04T03:44:26.807Z,75.20
2023-02-04T03:46:55.469Z,75.00
2023-02-04T03:49:23.387Z,75.00
2023-02-04T03:51:50.885Z,75.00
2023-02-04T03:54:18.238Z,74.40
2023-02-04T03:56:45.649Z,73.70
2023-02-04T03:59:12.946Z,73.20
2023-02-04T04:01:40.446Z,73.10
2023-02-04T04:04:07.754Z,73.30
2023-02-04T04:06:34.951Z,73.70
2023-02-04T04:09:02.210Z,74.10
2023-02-04T04:11:29.848Z,74.40
2023-02-04T04:13:57.440Z,74.70
2023-02-04T04:16:24.771Z,74.70
2023-02-04T04:18:52.240Z,74.90
2023-02-04T04:21:19.574Z,74.80
2023-02-04T04:23:46.949Z,74.90
2023-02-04T04:26:14.465Z,75.20
2023-02-04T04:28:41.695Z,75.40
2023-02-04T04:31:09.372Z,75.40
2023-02-04T04:33:36.841Z,75.30
2023-02-04T04:36:04.842Z,75.40
2023-02-04T04:38:32.253Z,75.30
2023-02-04T04:40:59.604Z,75.30
2023-02-04T04:43:27.181Z,75.30
2023-02-04T04:45:54.578Z,75.40
2023-02-04T04:48:23.169Z,75.40
2023-02-04T04:50:50.650Z,75.50
2023-02-04T04:53:18.391Z,75.40
2023-02-04T04:55:45.870Z,75.40
2023-02-04T04:58:13.234Z,75.40
2023-02-04T05:00:41.519Z,75.40
2023-02-04T05:03:09.010Z,75.40
2023-02-04T05:05:39.879Z,75.40
2023-02-04T05:08:13.286Z,75.50
2023-02-04T05:10:41.236Z,75.50
2023-02-04T05:13:09.057Z,75.50
2023-02-04T05:15:36.959Z,75.50
2023-02-04T05:18:04.387Z,75.60
2023-02-04T05:20:32.176Z,75.60
2023-02-04T05:23:01.140Z,75.60
2023-02-04T05:25:29.119Z,75.50
2023-02-04T05:27:56.660Z,75.50
2023-02-04T05:30:24.373Z,75.60
2023-02-04T05:32:51.788Z,75.60
2023-02-04T05:35:19.525Z,75.50
2023-02-04T05:37:46.957Z,75.40
2023-02-04T05:40:14.532Z,75.50
2023-02-04T05:42:41.901Z,75.60
2023-02-04T05:45:16.606Z,75.40
2023-02-04T05:47:43.965Z,75.30
2023-02-04T05:50:11.402Z,75.20
2023-02-04T05:52:38.866Z,75.00
2023-02-04T05:55:06.725Z,75.00
2023-02-04T05:57:34.116Z,74.80
2023-02-04T06:00:01.361Z,74.30
2023-02-04T06:02:28.777Z,74.00
2023-02-04T06:04:56.375Z,73.90
2023-02-04T06:07:23.862Z,74.50
2023-02-04T06:09:51.194Z,73.50
2023-02-04T06:12:18.598Z,73.20
2023-02-04T06:14:45.936Z,73.30
2023-02-04T06:17:13.282Z,73.10
2023-02-04T06:19:40.557Z,72.90
2023-02-04T06:22:07.736Z,73.10
2023-02-04T06:24:35.069Z,73.30
2023-02-04T06:27:02.443Z,73.30
2023-02-04T06:29:29.626Z,73.30
2023-02-04T06:31:56.968Z,73.40
2023-02-04T06:34:24.358Z,73.60
2023-02-04T06:36:51.755Z,73.50
2023-02-04T06:39:19.002Z,73.70
2023-02-04T06:41:46.191Z,73.80
2023-02-04T06:44:13.484Z,74.00
2023-02-04T06:46:40.798Z,74.20
2023-02-04T06:49:08.200Z,74.30
2023-02-04T06:51:35.695Z,74.30
2023-02-04T06:54:02.961Z,74.10
2023-02-04T06:56:30.155Z,74.10
2023-02-04T06:58:57.502Z,74.10
2023-02-04T07:01:24.993Z,73.40
2023-02-04T07:03:52.436Z,73.40
2023-02-04T07:06:19.863Z,73.60
2023-02-04T07:08:49.517Z,73.90
2023-02-04T07:11:16.990Z,74.00
2023-02-04T07:13:44.890Z,74.10
2023-02-04T07:16:12.269Z,74.20
2023-02-04T07:18:39.640Z,74.30
2023-02-04T07:21:06.970Z,74.10
2023-02-04T07:23:34.368Z,73.80
2023-02-04T07:26:02.321Z,73.50
2023-02-04T07:28:31.432Z,73.30
2023-02-04T07:30:59.053Z,72.90
2023-02-04T07:33:26.635Z,72.90
2023-02-04T07:35:54.050Z,72.70
2023-02-04T07:38:21.537Z,72.60
2023-02-04T07:40:49.166Z,72.40
2023-02-04T07:43:16.846Z,72.10
2023-02-04T07:45:44.336Z,71.90
2023-02-04T07:48:11.796Z,72.00
2023-02-04T07:50:39.229Z,72.20
2023-02-04T07:53:06.693Z,72.30
2023-02-04T07:55:35.067Z,72.50
2023-02-04T07:58:03.198Z,72.20
2023-02-04T08:00:30.893Z,72.10
2023-02-04T08:02:58.722Z,72.30
2023-02-04T08:05:26.225Z,72.00
2023-02-04T08:07:53.751Z,72.70
2023-02-04T08:10:21.579Z,71.60
2023-02-04T08:12:49.168Z,71.40
2023-02-04T08:15:16.774Z,71.30
2023-02-04T08:17:44.154Z,71.30
2023-02-04T08:20:12.749Z,71.00
2023-02-04T08:22:40.267Z,70.80
2023-02-04T08:25:07.982Z,70.70
2023-02-04T08:27:35.401Z,70.90
2023-02-04T08:30:03.882Z,71.00
2023-02-04T08:32:31.337Z,70.90
2023-02-04T08:34:59.326Z,70.00
2023-02-04T08:37:27.047Z,68.90
2023-02-04T08:39:54.502Z,67.60
2023-02-04T08:42:22.081Z,66.50
2023-02-04T08:44:49.658Z,64.90
2023-02-04T08:47:17.289Z,63.40
2023-02-04T08:49:44.563Z,62.50
2023-02-04T08:52:11.885Z,61.60
2023-02-04T08:54:39.315Z,61.20
2023-02-04T08:57:06.736Z,61.30
2023-02-04T08:59:34.205Z,61.40
2023-02-04T09:02:03.058Z,61.50
2023-02-04T09:04:30.473Z,61.90
2023-02-04T09:06:58.150Z,61.50
2023-02-04T09:09:26.432Z,61.60
2023-02-04T09:11:54.044Z,62.00
2023-02-04T09:14:21.316Z,61.70
2023-02-04T09:16:49.099Z,62.50
2023-02-04T09:19:19.189Z,63.60
2023-02-04T09:21:46.886Z,64.10
2023-02-04T09:24:14.314Z,64.70
2023-02-04T09:26:41.774Z,65.40
2023-02-04T09:29:09.174Z,63.30
2023-02-04T09:31:36.784Z,62.60
2023-02-04T09:34:04.123Z,62.80
2023-02-04T09:36:34.247Z,63.40
2023-02-04T09:39:01.654Z,62.90
2023-02-04T09:41:29.047Z,62.30
2023-02-04T09:43:56.620Z,61.00
2023-02-04T09:46:28.487Z,60.80
2023-02-04T09:48:58.015Z,60.60
2023-02-04T09:51:32.683Z,60.40
2023-02-04T09:54:13.440Z,60.00
2023-02-04T09:56:41.418Z,59.90
2023-02-04T09:59:14.625Z,60.30
2023-02-04T10:01:42.584Z,60.30
2023-02-04T10:04:15.028Z,60.80
2023-02-04T10:06:43.910Z,60.90
2023-02-04T10:09:12.193Z,61.10
2023-02-04T10:11:40.837Z,61.40
2023-02-04T10:14:14.560Z,61.30
2023-02-04T10:16:43.713Z,61.60
2023-02-04T10:19:15.907Z,62.20
2023-02-04T10:21:45.071Z,62.70
2023-02-04T10:24:18.866Z,62.50
2023-02-04T10:26:46.942Z,62.00
2023-02-04T10:29:20.443Z,61.50
2023-02-04T10:31:50.238Z,61.30
2023-02-04T10:34:20.496Z,61.50
2023-02-04T10:36:51.581Z,61.70
2023-02-04T10:39:21.528Z,61.60
2023-02-04T10:41:54.891Z,61.40
2023-02-04T10:44:30.598Z,61.60
2023-02-04T10:47:13.534Z,61.20
2023-02-04T10:49:41.541Z,60.80
2023-02-04T10:52:16.672Z,60.40
2023-02-04T10:54:44.244Z,60.20
2023-02-04T10:57:21.933Z,59.80
2023-02-04T10:59:55.537Z,59.90
2023-02-04T11:02:34.694Z,60.00
2023-02-04T11:05:03.542Z,59.80
2023-02-04T11:07:31.791Z,60.10
2023-02-04T11:09:59.485Z,59.60
2023-02-04T11:12:53.589Z,60.30
2023-02-04T11:15:55.530Z,60.00
2023-02-04T11:18:22.970Z,59.10
2023-02-04T11:20:53.461Z,59.70
2023-02-04T11:23:27.393Z,59.10
2023-02-04T11:26:08.700Z,58.60
2023-02-04T11:29:09.452Z,58.60
2023-02-04T11:31:56.535Z,59.50
2023-02-04T11:34:25.661Z,59.30
2023-02-04T11:36:56.856Z,59.30
2023-02-04T11:39:48.966Z,59.90
2023-02-04T11:42:30.633Z,60.00
2023-02-04T11:45:08.552Z,59.00
2023-02-04T11:47:37.158Z,58.90
2023-02-04T11:50:21.125Z,58.80
2023-02-04T11:52:48.417Z,58.70
2023-02-04T11:55:15.969Z,59.00
2023-02-04T11:57:44.472Z,58.80
2023-02-04T12:00:20.946Z,58.40
2023-02-04T12:02:55.026Z,58.70
2023-02-04T12:05:35.043Z,58.30
2023-02-04T12:08:24.558Z,58.30
2023-02-04T12:11:11.366Z,57.70
2023-02-04T12:13:54.176Z,59.50
2023-02-04T12:16:22.575Z,58.80
2023-02-04T12:18:50.726Z,58.90
2023-02-04T12:21:19.349Z,58.40
2023-02-04T12:23:46.739Z,58.20
2023-02-04T12:26:14.316Z,57.60
2023-02-04T12:28:41.840Z,57.10
2023-02-04T12:31:09.523Z,57.20
2023-02-04T12:33:36.831Z,57.30
2023-02-04T12:36:04.840Z,57.10
2023-02-04T12:38:32.042Z,57.60
2023-02-04T12:40:59.438Z,57.10
2023-02-04T12:43:28.410Z,56.90
2023-02-04T12:45:56.050Z,57.30
2023-02-04T12:48:23.664Z,57.20
2023-02-04T12:50:50.939Z,57.80
2023-02-04T12:53:18.285Z,57.60
2023-02-04T12:55:46.866Z,57.10
2023-02-04T12:58:14.215Z,57.20
2023-02-04T13:00:42.177Z,57.60
2023-02-04T13:03:09.566Z,57.70
2023-02-04T13:05:36.901Z,57.60
2023-02-04T13:08:04.337Z,57.60
2023-02-04T13:10:31.707Z,57.00
2023-02-04T13:13:00.805Z,56.90
2023-02-04T13:15:29.327Z,57.20
2023-02-04T13:17:57.280Z,55.70
2023-02-04T13:20:24.628Z,55.10
2023-02-04T13:22:53.210Z,55.40
2023-02-04T13:25:20.583Z,55.50
2023-02-04T13:27:47.964Z,55.40
2023-02-04T13:30:15.954Z,55.30
2023-02-04T13:32:43.493Z,54.80
2023-02-04T13:35:10.958Z,54.90
2023-02-04T13:37:38.599Z,54.90
2023-02-04T13:40:07.901Z,54.90
2023-02-04T13:42:35.888Z,54.80
2023-02-04T13:45:04.902Z,55.00
2023-02-04T13:47:32.236Z,54.90
2023-02-04T13:49:59.545Z,54.90
2023-02-04T13:52:26.911Z,54.60
2023-02-04T13:54:55.026Z,54.90
2023-02-04T13:57:23.070Z,55.20
2023-02-04T13:59:50.403Z,55.40
2023-02-04T14:02:17.842Z,54.70
2023-02-04T14:04:45.636Z,54.90
2023-02-04T14:07:13.209Z,55.20
2023-02-04T14:09:40.603Z,55.60
2023-02-04T14:12:08.076Z,55.80
2023-02-04T14:14:35.599Z,55.60
2023-02-04T14:17:03.142Z,55.70
2023-02-04T14:19:30.601Z,55.00
2023-02-04T14:21:58.492Z,54.80
2023-02-04T14:24:25.948Z,54.70
2023-02-04T14:26:53.686Z,55.00
2023-02-04T14:29:20.910Z,55.00
2023-02-04T14:31:49.048Z,54.90
2023-02-04T14:34:16.455Z,54.90
2023-02-04T14:36:43.906Z,54.90
2023-02-04T14:39:11.134Z,55.00
2023-02-04T14:41:38.538Z,55.30
2023-02-04T14:44:06.311Z,55.10
2023-02-04T14:46:34.475Z,55.00
2023-02-04T14:49:01.934Z,55.00
2023-02-04T14:51:29.399Z,55.20
2023-02-04T14:53:56.847Z,55.20
2023-02-04T14:56:24.406Z,55.20
2023-02-04T14:58:51.635Z,55.60
2023-02-04T15:01:19.834Z,55.80
2023-02-04T15:03:47.191Z,56.10
2023-02-04T15:06:14.685Z,55.90
2023-02-04T15:08:44.675Z,55.20
2023-02-04T15:11:12.214Z,55.80
2023-02-04T15:13:39.609Z,55.10
2023-02-04T15:16:07.282Z,54.50
2023-02-04T15:18:34.761Z,54.00
2023-02-04T15:21:02.194Z,53.90
2023-02-04T15:23:29.608Z,54.00
2023-02-04T15:25:57.589Z,53.90
2023-02-04T15:28:24.981Z,53.80
2023-02-04T15:30:52.647Z,53.70
2023-02-04T15:33:20.076Z,53.70
2023-02-04T15:35:47.770Z,53.80
2023-02-04T15:38:15.011Z,53.90
2023-02-04T15:40:42.330Z,54.00
2023-02-04T15:43:09.794Z,54.20
2023-02-04T15:45:41.247Z,54.10
2023-02-04T15:48:08.813Z,54.20
2023-02-04T15:50:37.350Z,54.50
2023-02-04T15:53:04.632Z,54.60
2023-02-04T15:55:32.088Z,54.70
2023-02-04T15:57:59.631Z,54.80
2023-02-04T16:00:27.097Z,55.00
2023-02-04T16:02:54.588Z,55.00
2023-02-04T16:05:21.989Z,55.00
2023-02-04T16:07:49.487Z,55.10
2023-02-04T16:10:18.621Z,55.30
2023-02-04T16:12:47.534Z,55.50
2023-02-04T16:15:15.297Z,55.70
2023-02-04T16:17:43.012Z,55.80
2023-02-04T16:20:11.740Z,56.00
2023-02-04T16:22:39.060Z,56.20
2023-02-04T16:25:07.094Z,56.60
2023-02-04T16:27:34.521Z,57.10
2023-02-04T16:30:03.358Z,57.40
2023-02-04T16:32:33.545Z,57.70
2023-02-04T16:35:02.297Z,57.90
2023-02-04T16:37:31.320Z,58.20
2023-02-04T16:39:58.934Z,58.50
2023-02-04T16:42:26.467Z,59.00
2023-02-04T16:44:53.822Z,59.30
2023-02-04T16:47:21.539Z,59.40
2023-02-04T16:49:49.630Z,59.50
2023-02-04T16:52:17.346Z,59.40
2023-02-04T16:54:44.828Z,59.50
2023-02-04T16:57:14.597Z,59.70
2023-02-04T16:59:42.084Z,59.60
2023-02-04T17:02:10.678Z,59.60
2023-02-04T17:04:38.188Z,60.00
2023-02-04T17:07:06.268Z,60.40
2023-02-04T17:09:33.791Z,60.70
2023-02-04T17:12:01.298Z,60.50
2023-02-04T17:14:28.906Z,60.80
2023-02-04T17:16:56.446Z,60.80
2023-02-04T17:19:24.285Z,60.90
2023-02-04T17:21:51.846Z,61.00
2023-02-04T17:24:19.410Z,61.30
2023-02-04T17:26:46.803Z,61.50
2023-02-04T17:29:20.664Z,61.70
2023-02-04T17:31:48.285Z,62.10
2023-02-04T17:34:15.729Z,62.90
2023-02-04T17:36:43.158Z,62.30
2023-02-04T17:39:10.466Z,62.60
2023-02-04T17:41:37.780Z,63.10
2023-02-04T17:44:06.705Z,63.50
2023-02-04T17:46:34.476Z,64.00
2023-02-04T17:49:01.893Z,64.40
2023-02-04T17:51:29.564Z,64.70
2023-02-04T17:53:56.960Z,64.50
2023-02-04T17:56:25.571Z,64.50
2023-02-04T17:58:55.966Z,64.40
2023-02-04T18:01:25.134Z,64.40
2023-02-04T18:03:52.859Z,64.50
2023-02-04T18:06:27.184Z,65.00
2023-02-04T18:09:02.022Z,65.10
2023-02-04T18:11:36.280Z,65.10
2023-02-04T18:14:16.842Z,65.60
2023-02-04T18:16:45.241Z,65.70
2023-02-04T18:19:28.598Z,65.50
2023-02-04T18:21:57.930Z,65.80
2023-02-04T18:24:39.657Z,65.80
2023-02-04T18:27:15.867Z,65.90
2023-02-04T18:29:45.885Z,66.20
2023-02-04T18:32:26.332Z,66.20
2023-02-04T18:34:55.629Z,66.50
2023-02-04T18:37:26.304Z,66.60
2023-02-04T18:40:24.491Z,66.60
2023-02-04T18:43:02.992Z,66.90
2023-02-04T18:45:32.685Z,66.50
2023-02-04T18:48:21.375Z,66.50
2023-02-04T18:50:51.396Z,66.70
2023-02-04T18:53:27.512Z,66.80
2023-02-04T18:55:57.933Z,67.20
2023-02-04T18:58:34.122Z,67.10
2023-02-04T19:01:03.486Z,67.10
2023-02-04T19:03:35.346Z,67.10
2023-02-04T19:06:04.167Z,67.10
2023-02-04T19:08:43.903Z,67.30
2023-02-04T19:11:47.150Z,67.30
2023-02-04T19:14:39.882Z,67.40
2023-02-04T19:17:28.309Z,67.60
2023-02-04T19:19:58.334Z,67.80
2023-02-04T19:22:46.150Z,67.60
2023-02-04T19:25:32.513Z,68.30
2023-02-04T19:28:02.693Z,68.20
2023-02-04T19:30:30.203Z,68.00
2023-02-04T19:33:01.722Z,67.90
2023-02-04T19:35:38.967Z,67.90
2023-02-04T19:38:26.324Z,68.20
2023-02-04T19:40:53.613Z,68.70
2023-02-04T19:43:33.495Z,68.60
2023-02-04T19:46:02.008Z,68.80
2023-02-04T19:48:33.933Z,68.40
2023-02-04T19:51:17.763Z,68.40
2023-02-04T19:53:51.414Z,68.50
2023-02-04T19:56:39.844Z,68.70
2023-02-04T19:59:36.258Z,70.10
2023-02-04T20:02:06.651Z,69.30
2023-02-04T20:04:44.763Z,69.20
2023-02-04T20:07:26.953Z,69.60
2023-02-04T20:10:17.121Z,69.80
2023-02-04T20:12:44.615Z,69.80
2023-02-04T20:15:20.544Z,69.70
2023-02-04T20:17:49.365Z,69.80
2023-02-04T20:20:21.621Z,69.90
2023-02-04T20:22:52.590Z,69.90
2023-02-04T20:25:20.900Z,70.10
2023-02-04T20:27:55.302Z,70.10
2023-02-04T20:30:30.849Z,70.20
2023-02-04T20:33:12.559Z,70.30
2023-02-04T20:35:39.931Z,70.30
2023-02-04T20:38:16.376Z,70.40
2023-02-04T20:40:46.676Z,70.40
2023-02-04T20:43:20.237Z,70.20
2023-02-04T20:45:54.973Z,70.00
2023-02-04T20:48:43.451Z,70.70
2023-02-04T20:51:23.808Z,69.90
2023-02-04T20:53:52.594Z,69.60
2023-02-04T20:56:31.535Z,69.40
2023-02-04T20:59:23.740Z,69.50
2023-02-04T21:01:51.286Z,69.80
2023-02-04T21:04:23.452Z,69.60
2023-02-04T21:06:55.385Z,69.60
2023-02-04T21:09:25.522Z,70.30
2023-02-04T21:11:54.414Z,69.70
2023-02-04T21:14:22.799Z,69.70
2023-02-04T21:16:50.119Z,69.70
2023-02-04T21:19:17.323Z,69.80
2023-02-04T21:21:44.903Z,70.00
2023-02-04T21:24:12.662Z,70.20
2023-02-04T21:26:40.101Z,70.30
2023-02-04T21:29:07.737Z,70.30
2023-02-04T21:31:35.150Z,70.60
2023-02-04T21:34:02.562Z,70.70
2023-02-04T21:36:30.309Z,70.80
2023-02-04T21:38:58.069Z,70.80
2023-02-04T21:41:25.735Z,70.70
2023-02-04T21:43:53.841Z,70.60
2023-02-04T21:46:21.236Z,70.70
2023-02-04T21:48:48.666Z,70.70
2023-02-04T21:51:16.242Z,70.60
2023-02-04T21:53:44.285Z,70.60
2023-02-04T21:56:11.891Z,70.60
2023-02-04T21:58:39.206Z,70.50
2023-02-04T22:01:06.891Z,70.60
2023-02-04T22:03:35.035Z,70.60
2023-02-04T22:06:02.564Z,70.80
2023-02-04T22:08:29.871Z,70.90
2023-02-04T22:10:57.295Z,71.00
2023-02-04T22:13:45.376Z,70.90
2023-02-04T22:16:13.253Z,70.90
2023-02-04T22:18:40.914Z,70.80
2023-02-04T22:21:08.331Z,70.80
2023-02-04T22:23:35.778Z,70.90
2023-02-04T22:26:03.905Z,70.80
2023-02-04T22:28:31.322Z,70.90
2023-02-04T22:30:58.878Z,71.00
2023-02-04T22:33:26.314Z,71.10
2023-02-04T22:35:53.860Z,71.10
2023-02-04T22:38:21.421Z,71.20
2023-02-04T22:40:49.974Z,71.30
2023-02-04T22:43:17.369Z,71.50
2023-02-04T22:45:44.724Z,72.00
2023-02-04T22:48:12.500Z,72.20
2023-02-04T22:50:40.015Z,72.30
2023-02-04T22:53:07.347Z,72.20
2023-02-04T22:55:35.172Z,73.00
2023-02-04T22:58:02.662Z,72.20
2023-02-04T23:00:30.025Z,72.10
2023-02-04T23:02:57.424Z,71.90
2023-02-04T23:05:25.126Z,71.80
2023-02-04T23:07:52.482Z,71.90
2023-02-04T23:10:19.868Z,71.80
2023-02-04T23:12:47.293Z,71.60
2023-02-04T23:15:15.254Z,71.60
2023-02-04T23:17:42.725Z,71.50
2023-02-04T23:20:10.584Z,71.60
2023-02-04T23:22:38.223Z,71.80
2023-02-04T23:25:06.640Z,71.70
2023-02-04T23:27:34.232Z,71.70
2023-02-04T23:30:01.453Z,71.60
2023-02-04T23:32:29.684Z,71.50
2023-02-04T23:34:57.573Z,71.40
2023-02-04T23:37:25.049Z,71.30
2023-02-04T23:39:52.420Z,71.20
2023-02-04T23:42:19.753Z,71.20
2023-02-04T23:44:47.263Z,71.70
2023-02-04T23:47:14.438Z,71.20
2023-02-04T23:49:42.617Z,71.20
2023-02-04T23:52:10.219Z,71.30
2023-02-04T23:54:39.693Z,71.20
2023-02-04T23:57:07.464Z,71.20
2023-02-04T23:59:36.148Z,71.30
